.
WxDataArchive / Data Records for 2013-03-10
2013-03-09 March 2013 2013-03-11

Data Records for Sunday, 10 March 2013

Time	Temp	Chill	HIndex	Humid	Dewpt	 Wind 	HiWind	WindDir	Rain 	Barom 
-----	----	-----	------	-----	-----	------	------	-------	-----	----- 
00:00	37.0	37.0	37.0	84	32.6	0	0	---	0.00	29.997 
00:05	36.9	36.9	36.9	84	32.5	0	0	---	0.00	29.997 
00:10	36.8	36.8	36.8	84	32.4	0	2	90	0.00	29.997 
00:15	36.9	36.9	36.9	85	32.8	1	2	90	0.00	29.986 
00:20	37.2	37.2	37.2	85	33.1	1	2	90	0.00	29.986 
00:25	37.3	37.3	37.3	85	33.2	1	2	90	0.00	29.986 
00:30	37.6	37.6	37.6	84	33.2	0	2	90	0.00	29.980 
00:35	38.0	38.0	38.0	83	33.3	0	1	90	0.00	29.980 
00:40	38.3	38.3	38.3	83	33.6	0	0	---	0.00	29.980 
00:45	38.5	38.5	38.5	82	33.5	0	0	---	0.00	29.981 
00:50	38.3	38.3	38.3	82	33.3	0	0	---	0.00	29.981 
00:55	38.2	38.2	38.2	82	33.2	0	0	---	0.00	29.981 
01:00	37.9	37.9	37.9	82	32.9	0	1	90	0.00	29.975 
01:05	37.8	37.8	37.8	83	33.1	1	2	90	0.00	29.975 
01:10	37.8	37.8	37.8	83	33.1	1	3	90	0.00	29.975 
01:15	37.8	37.8	37.8	82	32.8	0	2	90	0.00	29.972 
01:20	37.8	37.8	37.8	82	32.8	0	1	90	0.00	29.972 
01:25	37.8	37.8	37.8	82	32.8	0	1	90	0.00	29.972 
01:30	37.5	37.5	37.5	82	32.5	0	0	---	0.00	29.968 
01:35	37.3	37.3	37.3	83	32.6	0	0	---	0.00	29.968 
01:40	37.2	37.2	37.2	83	32.5	0	1	90	0.00	29.968 
01:45	37.2	37.2	37.2	83	32.5	0	1	90	0.00	29.969 
01:50	37.0	37.0	37.0	83	32.3	0	0	---	0.00	29.969 
01:55	36.9	36.9	36.9	83	32.2	0	0	---	0.00	29.969 
03:00	36.8	36.8	36.8	84	32.4	0	1	90	0.00	29.969 
03:05	36.8	36.8	36.8	84	32.4	0	1	90	0.00	29.969 
03:10	36.8	36.8	36.8	84	32.4	0	0	---	0.00	29.969 
03:15	36.8	36.8	36.8	84	32.4	0	0	---	0.00	29.963 
03:20	36.6	36.6	36.6	84	32.2	0	0	---	0.00	29.963 
03:25	36.5	36.5	36.5	84	32.1	0	0	---	0.00	29.963 
03:30	36.3	36.3	36.3	85	32.2	0	0	---	0.00	29.962 
03:35	36.2	36.2	36.2	85	32.1	0	0	---	0.00	29.962 
03:40	36.3	36.3	36.3	85	32.2	0	1	90	0.00	29.962 
03:45	36.5	36.5	36.5	85	32.4	0	2	90	0.00	29.952 
03:50	36.5	36.5	36.5	85	32.4	0	0	---	0.00	29.952 
03:55	36.5	36.5	36.5	85	32.4	0	0	---	0.00	29.952 
04:00	36.6	36.6	36.6	85	32.5	0	1	90	0.00	29.947 
04:05	36.8	36.8	36.8	85	32.7	0	0	---	0.00	29.947 
04:10	36.8	36.8	36.8	85	32.7	0	0	---	0.00	29.947 
04:15	37.0	37.0	37.0	85	32.9	0	2	90	0.00	29.946 
04:20	37.3	37.3	37.3	84	32.9	0	2	90	0.00	29.946 
04:25	37.5	37.5	37.5	83	32.8	0	0	---	0.00	29.946 
04:30	37.5	37.5	37.5	83	32.8	0	0	---	0.00	29.947 
04:35	37.6	37.6	37.6	84	33.2	0	1	90	0.00	29.947 
04:40	37.8	37.8	37.8	84	33.4	1	2	90	0.00	29.947 
04:45	37.9	37.9	37.9	83	33.2	1	2	90	0.00	29.942 
04:50	37.9	37.9	37.9	83	33.2	1	2	90	0.00	29.942 
04:55	37.9	37.9	37.9	83	33.2	1	2	90	0.00	29.942 
05:00	38.0	38.0	38.0	84	33.6	0	2	90	0.00	29.933 
05:05	38.0	38.0	38.0	84	33.6	0	0	---	0.00	29.933 
05:10	38.2	38.2	38.2	84	33.8	0	1	90	0.00	29.933 
05:15	38.2	38.2	38.2	84	33.8	0	0	---	0.00	29.932 
05:20	38.2	38.2	38.2	85	34.1	0	0	---	0.00	29.932 
05:25	38.0	38.0	38.0	85	33.9	0	0	---	0.00	29.932 
05:30	38.0	38.0	38.0	85	33.9	0	0	---	0.00	29.935 
05:35	37.9	37.9	37.9	86	34.1	0	0	---	0.00	29.935 
05:40	37.8	37.8	37.8	86	34.0	0	1	90	0.00	29.935 
05:45	37.8	37.8	37.8	86	34.0	0	1	90	0.00	29.936 
05:50	37.8	37.8	37.8	86	34.0	0	1	90	0.00	29.936 
05:55	37.9	37.9	37.9	86	34.1	0	0	---	0.00	29.936 
06:00	38.0	38.0	38.0	85	33.9	0	0	---	0.00	29.939 
06:05	38.2	38.2	38.2	85	34.1	0	0	---	0.00	29.939 
06:10	38.3	38.3	38.3	84	33.9	0	0	---	0.00	29.939 
06:15	38.5	38.5	38.5	84	34.1	0	1	90	0.00	29.939 
06:20	38.6	38.6	38.6	83	33.9	0	0	---	0.00	29.939 
06:25	38.8	38.8	38.8	82	33.8	0	1	90	0.00	29.939 
06:30	38.9	38.9	38.9	82	33.9	0	1	90	0.00	29.935 
06:35	39.2	39.2	39.2	81	33.9	0	1	90	0.00	29.935 
06:40	39.3	39.3	39.3	80	33.7	0	1	90	0.00	29.935 
06:45	39.5	39.5	39.5	79	33.5	0	1	90	0.00	29.944 
06:50	39.3	39.3	39.3	79	33.3	0	0	---	0.00	29.944 
06:55	39.2	39.2	39.2	80	33.6	0	0	---	0.00	29.944 
07:00	38.9	38.9	38.9	81	33.6	0	0	---	0.00	29.948 
07:05	38.8	38.8	38.8	81	33.5	0	0	---	0.00	29.948 
07:10	38.6	38.6	38.6	81	33.3	0	0	---	0.00	29.948 
07:15	38.5	38.5	38.5	82	33.5	0	0	---	0.00	29.950 
07:20	38.3	38.3	38.3	82	33.3	0	0	---	0.00	29.950 
07:25	38.5	38.5	38.5	82	33.5	0	0	---	0.00	29.950 
07:30	38.5	38.5	38.5	82	33.5	0	0	---	0.00	29.950 
07:35	38.6	38.6	38.6	82	33.6	0	0	---	0.00	29.950 
07:40	38.8	38.8	38.8	81	33.5	0	0	---	0.00	29.950 
07:45	39.1	39.1	39.1	80	33.5	0	0	---	0.00	29.955 
07:50	39.3	39.3	39.3	79	33.3	0	0	---	0.00	29.955 
07:55	39.5	39.5	39.5	79	33.5	0	0	---	0.00	29.955 
08:00	39.6	39.6	39.6	78	33.3	0	1	90	0.00	29.956 
08:05	39.8	39.8	39.8	77	33.2	0	0	---	0.00	29.956 
08:10	39.9	39.9	39.9	77	33.3	0	0	---	0.00	29.956 
08:15	39.9	39.9	39.9	77	33.3	0	1	90	0.00	29.955 
08:20	39.9	39.9	39.9	77	33.3	0	0	---	0.00	29.955 
08:25	40.1	40.1	40.1	77	33.5	0	1	90	0.00	29.955 
08:30	40.1	40.1	40.1	76	33.2	0	2	90	0.00	29.952 
08:35	40.2	40.2	40.2	76	33.3	0	1	90	0.00	29.952 
08:40	40.3	40.3	40.3	76	33.3	0	0	---	0.00	29.952 
08:45	40.3	40.3	40.3	76	33.3	0	1	90	0.00	29.956 
08:50	40.6	40.6	40.6	75	33.3	0	1	90	0.00	29.956 
08:55	40.9	40.9	40.9	75	33.6	0	2	90	0.00	29.956 
09:00	41.2	41.2	41.2	74	33.6	0	2	90	0.00	29.958 
09:05	41.6	41.6	41.6	73	33.6	0	2	90	0.00	29.958 
09:10	41.9	41.9	41.9	73	33.9	0	2	90	0.00	29.958 
09:15	42.3	42.3	42.3	72	33.9	1	3	90	0.00	29.945 
09:20	42.5	42.5	42.5	71	33.8	0	2	90	0.00	29.945 
09:25	42.8	42.8	42.8	71	34.1	0	1	90	0.00	29.945 
09:30	42.8	42.8	42.8	71	34.1	0	2	90	0.00	29.932 
09:35	42.8	42.8	42.8	71	34.1	0	1	90	0.00	29.932 
09:40	42.6	42.6	42.6	71	33.9	0	2	90	0.00	29.932 
09:45	42.6	42.6	42.6	71	33.9	0	3	112	0.00	29.939 
09:50	42.8	42.8	42.8	71	34.1	1	3	112	0.00	29.939 
09:55	42.9	42.9	42.9	71	34.2	1	3	112	0.00	29.939 
10:00	43.1	43.1	43.1	71	34.3	0	1	112	0.00	29.944 
10:05	43.1	43.1	43.1	70	34.0	0	1	112	0.00	29.944 
10:10	43.2	43.2	43.2	70	34.1	0	1	112	0.00	29.944 
10:15	43.3	43.3	43.3	70	34.2	0	1	112	0.00	29.933 
10:20	43.5	43.5	43.5	70	34.4	0	1	112	0.00	29.933 
10:25	43.8	43.8	43.8	70	34.7	0	1	112	0.00	29.933 
10:30	44.1	44.1	44.1	70	35.0	0	1	112	0.00	29.940 
10:35	44.3	44.3	44.3	69	34.8	0	2	112	0.00	29.940 
10:40	44.9	44.9	44.9	68	35.0	0	2	112	0.00	29.940 
10:45	45.4	45.4	45.4	67	35.1	1	3	112	0.00	29.935 
10:50	45.8	45.8	45.8	66	35.1	1	3	112	0.00	29.935 
10:55	46.2	46.2	46.2	65	35.1	0	2	112	0.00	29.935 
11:00	46.8	46.8	46.8	64	35.3	1	5	135	0.00	29.932 
11:05	47.3	47.3	47.3	62	34.9	1	5	90	0.00	29.932 
11:10	48.0	48.0	48.0	61	35.2	2	5	90	0.00	29.932 
11:15	49.1	49.1	49.1	58	35.0	2	6	90	0.00	29.924 
11:20	49.8	49.8	49.8	57	35.2	2	6	90	0.00	29.924 
11:25	50.2	50.2	50.2	56	35.1	2	6	68	0.00	29.924 
11:30	50.7	50.7	50.7	55	35.1	1	4	90	0.00	29.930 
11:35	51.1	51.1	51.1	55	35.5	1	5	68	0.00	29.930 
11:40	51.6	51.6	51.6	54	35.5	1	5	68	0.00	29.930 
11:45	51.6	51.6	51.6	54	35.5	2	6	112	0.00	29.928 
11:50	51.4	51.4	51.4	54	35.3	2	5	90	0.00	29.928 
11:55	51.4	51.4	51.4	54	35.3	2	6	45	0.00	29.928 
12:00	51.3	51.3	51.3	54	35.2	2	5	90	0.00	29.923 
12:05	51.4	51.4	51.4	54	35.3	1	4	68	0.00	29.923 
12:10	51.7	51.7	51.7	54	35.6	2	4	90	0.00	29.923 
12:15	51.7	51.7	51.7	54	35.6	2	7	45	0.00	29.922 
12:20	51.4	51.4	51.4	54	35.3	1	3	112	0.00	29.922 
12:25	51.3	51.3	51.3	55	35.7	2	11	90	0.00	29.922 
12:30	51.0	51.0	51.0	55	35.4	2	5	112	0.00	29.923 
12:35	51.0	51.0	51.0	56	35.9	1	4	68	0.00	29.923 
12:40	51.4	51.4	51.4	55	35.8	2	6	112	0.00	29.923 
12:45	51.9	51.9	51.9	54	35.8	2	6	90	0.00	29.915 
12:50	52.5	52.5	52.5	54	36.3	2	5	90	0.00	29.915 
12:55	52.6	52.6	52.6	54	36.4	2	5	90	0.00	29.915 
13:00	52.6	52.6	52.6	54	36.4	3	5	90	0.00	29.907 
13:05	52.8	52.8	52.8	54	36.6	2	6	68	0.00	29.907 
13:10	53.5	53.5	53.5	53	36.8	1	4	90	0.00	29.907 
13:15	53.9	53.9	53.9	52	36.7	2	4	90	0.00	29.896 
13:20	53.6	53.6	53.6	53	36.9	2	7	90	0.00	29.896 
13:25	53.5	53.5	53.5	53	36.8	2	7	90	0.00	29.896 
13:30	53.6	53.6	53.6	53	36.9	2	6	68	0.00	29.898 
13:35	53.6	53.6	53.6	53	36.9	2	5	90	0.00	29.898 
13:40	53.6	53.6	53.6	53	36.9	2	7	112	0.00	29.898 
13:45	53.6	53.6	53.6	54	37.4	2	4	90	0.00	29.889 
13:50	53.6	53.6	53.6	54	37.4	1	3	90	0.00	29.889 
13:55	53.6	53.6	53.6	54	37.4	2	6	90	0.00	29.889 
14:00	53.8	53.8	53.8	54	37.5	1	4	90	0.00	29.888 
14:05	54.4	54.4	54.4	54	38.1	2	4	90	0.00	29.888 
14:10	54.7	54.7	54.7	54	38.4	2	5	112	0.00	29.888 
14:15	55.1	55.1	55.1	54	38.8	2	6	112	0.00	29.893 
14:20	55.4	55.4	55.4	54	39.0	2	6	90	0.00	29.893 
14:25	55.7	55.7	55.7	54	39.3	3	6	90	0.00	29.893 
14:30	55.6	55.6	55.6	54	39.2	2	4	90	0.00	29.899 
14:35	55.9	55.9	55.9	55	40.0	1	3	90	0.00	29.899 
14:40	56.2	56.2	56.2	54	39.8	1	4	90	0.00	29.899 
14:45	56.3	56.3	56.3	54	39.9	2	5	90	0.00	29.888 
14:50	56.5	56.5	56.5	54	40.1	2	5	90	0.00	29.888 
14:55	56.6	56.6	56.6	54	40.1	2	7	22	0.00	29.888 
15:00	57.0	57.0	57.0	54	40.5	1	5	68	0.00	29.885 
15:05	57.5	57.5	57.5	53	40.5	1	6	68	0.00	29.885 
15:10	57.8	57.8	57.8	53	40.8	2	6	90	0.00	29.885 
15:15	58.1	58.1	58.1	53	41.1	2	5	112	0.00	29.868 
15:20	58.6	58.6	58.6	52	41.0	2	5	90	0.00	29.868 
15:25	59.0	59.0	59.0	51	40.9	2	5	90	0.00	29.868 
15:30	59.3	59.3	59.3	52	41.7	1	3	112	0.00	29.855 
15:35	59.3	59.3	59.3	51	41.2	2	5	112	0.00	29.855 
15:40	59.2	59.2	59.2	51	41.1	3	6	112	0.00	29.855 
15:45	59.0	59.0	59.0	51	40.9	2	5	135	0.00	29.837 
15:50	58.9	58.9	58.9	52	41.3	1	4	112	0.00	29.837 
15:55	58.7	58.7	58.7	51	40.6	2	5	90	0.00	29.837 
16:00	58.4	58.4	58.4	52	40.8	2	6	90	0.00	29.824 
16:05	58.3	58.3	58.3	53	41.2	1	2	112	0.00	29.824 
16:10	58.3	58.3	58.3	54	41.7	1	3	135	0.00	29.824 
16:15	58.4	58.4	58.4	54	41.8	1	2	112	0.00	29.827 
16:20	58.7	58.7	58.7	53	41.6	1	3	90	0.00	29.827 
16:25	59.0	59.0	59.0	51	40.9	2	5	112	0.00	29.827 
16:30	59.3	59.3	59.3	50	40.7	3	7	112	0.00	29.833 
16:35	59.3	59.3	59.3	49	40.1	1	4	112	0.00	29.833 
16:40	59.3	59.3	59.3	49	40.1	1	4	112	0.00	29.833 
16:45	59.5	59.5	59.5	48	39.8	1	3	112	0.00	29.839 
16:50	59.5	59.5	59.5	47	39.3	1	6	90	0.00	29.839 
16:55	59.5	59.5	59.5	46	38.7	2	4	90	0.00	29.839 
17:00	59.6	59.6	59.6	45	38.2	1	4	112	0.00	29.839 
17:05	59.6	59.6	59.6	45	38.2	2	5	112	0.00	29.839 
17:10	59.6	59.6	59.6	44	37.7	3	7	112	0.00	29.839 
17:15	59.6	59.6	59.6	44	37.7	2	6	112	0.00	29.842 
17:20	59.6	59.6	59.6	43	37.1	2	6	135	0.00	29.842 
17:25	59.6	59.6	59.6	43	37.1	2	6	90	0.00	29.842 
17:30	59.5	59.5	59.5	43	37.0	2	5	90	0.00	29.838 
17:35	59.5	59.5	59.5	43	37.0	2	4	135	0.00	29.838 
17:40	59.3	59.3	59.3	43	36.8	2	11	112	0.00	29.838 
17:45	59.3	59.3	59.3	43	36.8	2	4	112	0.00	29.828 
17:50	59.0	59.0	59.0	45	37.7	1	3	112	0.00	29.828 
17:55	58.7	58.7	58.7	47	38.5	0	1	112	0.00	29.828 
18:00	58.3	58.3	58.3	48	38.7	1	3	112	0.00	29.826 
18:05	58.0	58.0	58.0	50	39.5	0	1	158	0.00	29.826 
18:10	57.5	57.5	57.5	51	39.5	0	1	158	0.00	29.826 
18:15	57.0	57.0	57.0	52	39.5	0	2	158	0.00	29.819 
18:20	56.7	56.7	56.7	53	39.8	0	2	158	0.00	29.819 
18:25	56.5	56.5	56.5	54	40.1	1	3	158	0.00	29.819 
18:30	56.3	56.3	56.3	54	39.9	1	4	112	0.00	29.798 
18:35	56.0	56.0	56.0	54	39.6	0	3	112	0.00	29.798 
18:40	55.7	55.7	55.7	54	39.3	0	2	112	0.00	29.798 
18:45	55.4	55.4	55.4	54	39.0	0	2	112	0.00	29.792 
18:50	55.3	55.3	55.3	54	38.9	0	2	68	0.00	29.792 
18:55	55.1	55.1	55.1	55	39.2	0	3	90	0.00	29.792 
19:00	55.0	55.0	55.0	56	39.6	1	3	90	0.00	29.805 
19:05	54.8	54.8	54.8	57	39.9	1	4	90	0.00	29.805 
19:10	54.7	54.7	54.7	57	39.8	1	2	112	0.00	29.805 
19:15	54.5	54.5	54.5	57	39.6	0	2	112	0.00	29.806 
19:20	54.5	54.5	54.5	58	40.0	0	2	112	0.00	29.806 
19:25	54.2	54.2	54.2	58	39.7	1	2	112	0.00	29.806 
19:30	54.1	54.1	54.1	58	39.7	1	3	135	0.00	29.809 
19:35	54.1	54.1	54.1	58	39.7	1	4	135	0.00	29.809 
19:40	53.9	53.9	53.9	59	39.9	0	2	135	0.00	29.809 
19:45	53.8	53.8	53.8	59	39.8	0	2	112	0.00	29.812 
19:50	53.5	53.5	53.5	60	40.0	0	1	112	0.00	29.812 
19:55	53.3	53.3	53.3	60	39.8	0	1	112	0.00	29.812 
20:00	53.1	53.1	53.1	61	40.0	0	1	112	0.00	29.813 
20:05	52.8	52.8	52.8	61	39.7	0	2	112	0.00	29.813 
20:10	52.8	52.8	52.8	61	39.7	0	1	112	0.00	29.813 
20:15	52.8	52.8	52.8	61	39.7	1	2	112	0.00	29.822 
20:20	52.8	52.8	52.8	60	39.3	0	2	112	0.00	29.822 
20:25	53.1	53.1	53.1	60	39.6	0	2	112	0.00	29.822 
20:30	53.1	53.1	53.1	59	39.2	2	7	135	0.00	29.802 
20:35	53.6	53.6	53.6	57	38.7	4	10	90	0.00	29.802 
20:40	53.8	53.8	53.8	58	39.4	1	3	112	0.00	29.802 
20:45	53.8	53.8	53.8	56	38.5	1	3	135	0.00	29.810 
20:50	53.8	53.8	53.8	56	38.5	1	3	112	0.00	29.810 
20:55	53.8	53.8	53.8	56	38.5	0	2	90	0.00	29.810 
21:00	53.6	53.6	53.6	55	37.8	1	3	68	0.00	29.806 
21:05	53.6	53.6	53.6	55	37.8	1	3	135	0.00	29.806 
21:10	53.6	53.6	53.6	56	38.3	1	3	135	0.00	29.806 
21:15	53.5	53.5	53.5	56	38.2	2	5	112	0.00	29.789 
21:20	53.3	53.3	53.3	57	38.5	1	2	112	0.00	29.789 
21:25	53.1	53.1	53.1	58	38.7	1	3	112	0.00	29.789 
21:30	52.9	52.9	52.9	58	38.5	1	2	90	0.00	29.786 
21:35	52.8	52.8	52.8	58	38.4	0	2	90	0.00	29.786 
21:40	52.5	52.5	52.5	59	38.6	0	2	90	0.00	29.786 
21:45	52.3	52.3	52.3	59	38.4	1	3	90	0.00	29.783 
21:50	52.3	52.3	52.3	59	38.4	0	2	112	0.00	29.783 
21:55	52.2	52.2	52.2	59	38.3	0	3	112	0.00	29.783 
22:00	52.0	52.0	52.0	59	38.1	0	2	112	0.00	29.788 
22:05	52.0	52.0	52.0	59	38.1	0	1	112	0.00	29.788 
22:10	51.9	51.9	51.9	61	38.9	0	2	112	0.00	29.788 
22:15	52.2	52.2	52.2	59	38.3	2	9	68	0.00	29.793 
22:20	52.8	52.8	52.8	60	39.3	2	7	112	0.00	29.793 
22:25	52.9	52.9	52.9	59	39.0	2	4	90	0.01	29.793 
22:30	53.2	53.2	53.2	59	39.2	1	3	135	0.00	29.785 
22:35	53.3	53.3	53.3	59	39.3	1	3	112	0.00	29.785 
22:40	53.3	53.3	53.3	59	39.3	1	3	68	0.00	29.785 
22:45	53.2	53.2	53.2	60	39.7	1	9	248	0.00	29.788 
22:50	53.1	53.1	53.1	60	39.6	2	5	135	0.00	29.788 
22:55	53.6	53.6	53.6	55	37.8	6	16	90	0.00	29.788 
23:00	54.5	54.5	54.5	54	38.2	4	11	90	0.00	29.777 
23:05	54.8	54.8	54.8	53	38.0	4	11	90	0.00	29.777 
23:10	55.1	55.1	55.1	52	37.8	3	7	112	0.00	29.777 
23:15	55.1	55.1	55.1	52	37.8	3	6	90	0.00	29.765 
23:20	55.1	55.1	55.1	52	37.8	3	7	112	0.00	29.765 
23:25	55.1	55.1	55.1	52	37.8	2	5	90	0.00	29.765 
23:30	55.1	55.1	55.1	52	37.8	3	6	90	0.00	29.764 
23:35	55.0	55.0	55.0	52	37.7	2	6	90	0.00	29.764 
23:40	55.0	55.0	55.0	52	37.7	3	7	112	0.00	29.764 
23:45	55.0	55.0	55.0	52	37.7	3	6	112	0.00	29.765 
23:50	55.0	55.0	55.0	53	38.2	3	7	90	0.00	29.765 
23:55	55.0	55.0	55.0	54	38.7	2	6	135	0.00	29.765 
20130311 00:00	55.0	55.0	55.0	54	38.7	2	6	112	0.00	29.762 
20130311 00:05	55.0	55.0	55.0	54	38.7	2	6	112	0.00	29.762 
20130311 00:10	54.8	54.8	54.8	54	38.5	1	4	112	0.00	29.762 
20130311 00:15	54.8	54.8	54.8	55	38.9	1	3	68	0.00	29.753 
20130311 00:20	54.5	54.5	54.5	56	39.1	1	3	68	0.00	29.753 
20130311 00:25	54.4	54.4	54.4	57	39.5	1	4	68	0.00	29.753 
20130311 00:30	54.4	54.4	54.4	57	39.5	1	3	90	0.00	29.750 
20130311 00:35	54.2	54.2	54.2	57	39.3	1	4	90	0.00	29.750 
20130311 00:40	54.2	54.2	54.2	57	39.3	1	4	90	0.00	29.750 
20130311 00:45	54.1	54.1	54.1	57	39.2	1	4	90	0.00	29.743 
20130311 00:50	53.9	53.9	53.9	57	39.0	0	2	90	0.00	29.743 
20130311 00:55	53.8	53.8	53.8	58	39.4	1	3	90	0.00	29.743 

CoCoRaHS
IN-AL-39
A2 Web Hosting
Creative Commons License
GoDaddy
search engine by freefind advanced

loaded 2018-11-13 22:36:32 • last modified 2010-11-18 10:43:29
Privacy PolicyDisclaimer
• wx.awcolley.com is powered by PmWiki v.2002016 •
• all content (unless otherwise noted) © 2018 A W Colley